createdAt,value
2023-03-24T00:02:01.118Z,100193.16
2023-03-24T00:04:36.744Z,100196.85
2023-03-24T00:07:15.143Z,100196.02
2023-03-24T00:09:53.901Z,100193.91
2023-03-24T00:12:32.728Z,100189.13
2023-03-24T00:15:09.532Z,100190.53
2023-03-24T00:17:46.798Z,100188.95
2023-03-24T00:20:29.943Z,100188.36
2023-03-24T00:23:09.440Z,100182.34
2023-03-24T00:25:51.280Z,100181.95
2023-03-24T00:28:30.047Z,100175.61
2023-03-24T00:31:13.696Z,100175.26
2023-03-24T00:33:52.000Z,100179.26
2023-03-24T00:36:30.620Z,100182.06
2023-03-24T00:39:20.580Z,100185.56
2023-03-24T00:42:02.030Z,100188.33
2023-03-24T00:44:48.076Z,100192.05
2023-03-24T00:47:26.319Z,100194.38
2023-03-24T00:50:04.742Z,100193.67
2023-03-24T00:52:44.880Z,100191.95
2023-03-24T00:55:32.947Z,100185.40
2023-03-24T00:58:20.733Z,100182.55
2023-03-24T01:01:01.899Z,100176.49
2023-03-24T01:03:51.631Z,100175.35
2023-03-24T01:06:30.104Z,100171.55
2023-03-24T01:09:07.030Z,100169.48
2023-03-24T01:11:52.732Z,100164.73
2023-03-24T01:14:30.789Z,100166.36
2023-03-24T01:17:11.271Z,100161.54
2023-03-24T01:19:51.428Z,100161.54
2023-03-24T01:22:32.023Z,100153.96
2023-03-24T01:25:19.331Z,100150.63
2023-03-24T01:28:02.114Z,100148.53
2023-03-24T01:30:40.291Z,100142.69
2023-03-24T01:33:15.513Z,100138.70
2023-03-24T01:35:56.687Z,100140.21
2023-03-24T01:38:55.069Z,100135.00
2023-03-24T01:41:46.580Z,100130.12
2023-03-24T01:44:42.816Z,100129.86
2023-03-24T01:47:24.467Z,100132.38
2023-03-24T01:50:11.947Z,100136.74
2023-03-24T01:52:50.366Z,100136.80
2023-03-24T01:55:33.505Z,100136.65
2023-03-24T01:58:13.587Z,100138.06
2023-03-24T02:01:08.104Z,100137.36
2023-03-24T02:04:11.848Z,100135.40
2023-03-24T02:06:57.584Z,100133.44
2023-03-24T02:09:34.354Z,100136.92
2023-03-24T02:12:16.170Z,100136.04
2023-03-24T02:15:13.566Z,100131.57
2023-03-24T02:18:11.481Z,100130.18
2023-03-24T02:21:24.076Z,100124.60
2023-03-24T02:24:45.357Z,100123.66
2023-03-24T02:27:46.739Z,100128.11
2023-03-24T02:31:17.961Z,100130.02
2023-03-24T02:34:30.236Z,100125.75
2023-03-24T02:37:36.732Z,100126.70
2023-03-24T02:40:30.640Z,100122.08
2023-03-24T02:43:43.341Z,100122.41
2023-03-24T02:46:28.627Z,100124.21
2023-03-24T02:49:13.601Z,100119.86
2023-03-24T02:52:04.917Z,100118.44
2023-03-24T02:54:50.457Z,100121.94
2023-03-24T02:57:34.014Z,100116.36
2023-03-24T03:00:37.677Z,100119.14
2023-03-24T03:03:47.613Z,100116.47
2023-03-24T03:06:27.911Z,100112.27
2023-03-24T03:09:09.115Z,100112.00
2023-03-24T03:11:52.618Z,100113.91
2023-03-24T03:14:32.964Z,100116.73
2023-03-24T03:17:29.923Z,100119.27
2023-03-24T03:20:13.452Z,100118.81
2023-03-24T03:22:53.065Z,100114.98
2023-03-24T03:25:48.936Z,100111.77
2023-03-24T03:28:38.790Z,100109.61
2023-03-24T03:31:30.458Z,100110.70
2023-03-24T03:34:17.631Z,100101.41
2023-03-24T03:36:59.380Z,100102.95
2023-03-24T03:39:39.739Z,100099.65
2023-03-24T03:42:22.948Z,100095.88
2023-03-24T03:45:15.142Z,100089.34
2023-03-24T03:47:57.786Z,100082.40
2023-03-24T03:50:38.228Z,100074.18
2023-03-24T03:53:24.140Z,100073.84
2023-03-24T03:56:06.937Z,100069.77
2023-03-24T03:58:48.706Z,100072.28
2023-03-24T04:01:36.658Z,100073.45
2023-03-24T04:05:03.261Z,100075.46
2023-03-24T04:08:32.639Z,100069.50
2023-03-24T04:11:49.362Z,100072.17
2023-03-24T04:15:24.490Z,100063.30
2023-03-24T04:18:54.926Z,100058.05
2023-03-24T04:21:55.029Z,100060.98
2023-03-24T04:24:51.928Z,100064.08
2023-03-24T04:27:44.974Z,100062.30
2023-03-24T04:30:35.773Z,100055.98
2023-03-24T04:33:39.337Z,100044.77
2023-03-24T04:36:35.709Z,100032.96
2023-03-24T04:39:44.010Z,100022.77
2023-03-24T04:42:30.324Z,100025.59
2023-03-24T04:45:20.710Z,100014.55
2023-03-24T04:48:12.996Z,100007.42
2023-03-24T04:51:28.114Z,100005.85
2023-03-24T04:54:26.886Z,100005.04
2023-03-24T04:57:10.152Z,100003.54
2023-03-24T05:00:20.454Z,100005.48
2023-03-24T05:02:58.956Z,100004.92
2023-03-24T05:05:36.897Z,100003.41
2023-03-24T05:08:19.355Z,100003.77
2023-03-24T05:11:05.856Z,99996.31
2023-03-24T05:13:47.453Z,99991.94
2023-03-24T05:16:27.231Z,99990.22
2023-03-24T05:19:10.266Z,99984.23
2023-03-24T05:21:47.090Z,99979.46
2023-03-24T05:24:27.715Z,99970.91
2023-03-24T05:27:19.730Z,99962.05
2023-03-24T05:29:58.130Z,99965.20
2023-03-24T05:32:36.616Z,99961.67
2023-03-24T05:35:14.722Z,99956.61
2023-03-24T05:37:54.510Z,99953.90
2023-03-24T05:40:33.701Z,99955.38
2023-03-24T05:43:35.707Z,99953.10
2023-03-24T05:46:42.824Z,99949.30
2023-03-24T05:49:20.356Z,99950.04
2023-03-24T05:52:01.239Z,99950.09
2023-03-24T05:54:57.887Z,99943.64
2023-03-24T05:57:42.715Z,99947.23
2023-03-24T06:00:29.159Z,99951.77
2023-03-24T06:03:18.979Z,99946.63
2023-03-24T06:06:20.214Z,99942.23
2023-03-24T06:09:00.023Z,99933.25
2023-03-24T06:11:41.994Z,99932.52
2023-03-24T06:14:30.590Z,99925.48
2023-03-24T06:17:17.216Z,99925.80
2023-03-24T06:20:04.068Z,99929.89
2023-03-24T06:23:03.693Z,99923.08
2023-03-24T06:25:45.768Z,99915.70
2023-03-24T06:28:30.792Z,99912.20
2023-03-24T06:31:15.714Z,99908.73
2023-03-24T06:33:55.288Z,99908.54
2023-03-24T06:36:37.848Z,99907.37
2023-03-24T06:39:15.715Z,99903.60
2023-03-24T06:41:54.075Z,99897.50
2023-03-24T06:44:29.296Z,99898.79
2023-03-24T06:47:08.315Z,99897.88
2023-03-24T06:49:52.697Z,99897.67
2023-03-24T06:52:29.830Z,99895.42
2023-03-24T06:55:14.023Z,99894.85
2023-03-24T06:57:51.918Z,99887.44
2023-03-24T07:00:48.067Z,99887.83
2023-03-24T07:03:45.855Z,99886.18
2023-03-24T07:07:01.346Z,99880.10
2023-03-24T07:09:42.258Z,99873.67
2023-03-24T07:12:17.230Z,99867.23
2023-03-24T07:14:56.376Z,99867.80
2023-03-24T07:17:33.096Z,99865.77
2023-03-24T07:20:33.392Z,99861.95
2023-03-24T07:23:19.124Z,99852.41
2023-03-24T07:26:03.222Z,99842.98
2023-03-24T07:29:08.188Z,99837.64
2023-03-24T07:32:03.627Z,99832.02
2023-03-24T07:34:40.936Z,99830.34
2023-03-24T07:37:19.620Z,99824.85
2023-03-24T07:39:59.088Z,99827.60
2023-03-24T07:42:40.058Z,99827.20
2023-03-24T07:45:35.750Z,99829.56
2023-03-24T07:48:16.551Z,99829.15
2023-03-24T07:50:55.120Z,99828.52
2023-03-24T07:53:56.889Z,99831.73
2023-03-24T07:56:47.260Z,99825.14
2023-03-24T07:59:25.998Z,99828.05
2023-03-24T08:02:24.140Z,99828.35
2023-03-24T08:05:31.146Z,99821.73
2023-03-24T08:08:49.038Z,99820.54
2023-03-24T08:11:23.886Z,99821.05
2023-03-24T08:14:01.834Z,99819.73
2023-03-24T08:16:36.442Z,99812.90
2023-03-24T08:19:13.772Z,99813.02
2023-03-24T08:21:52.936Z,99811.16
2023-03-24T08:24:32.139Z,99803.11
2023-03-24T08:27:13.686Z,99801.58
2023-03-24T08:29:49.340Z,99795.21
2023-03-24T08:32:27.174Z,99791.97
2023-03-24T08:35:13.190Z,99787.16
2023-03-24T08:38:07.085Z,99784.59
2023-03-24T08:40:44.619Z,99774.22
2023-03-24T08:43:25.935Z,99773.21
2023-03-24T08:46:05.484Z,99772.61
2023-03-24T08:48:48.360Z,99763.94
2023-03-24T08:51:28.569Z,99756.50
2023-03-24T08:54:14.345Z,99753.22
2023-03-24T08:56:51.140Z,99746.29
2023-03-24T08:59:28.006Z,99746.86
2023-03-24T09:02:02.605Z,99745.61
2023-03-24T09:04:45.467Z,99741.47
2023-03-24T09:07:24.236Z,99740.52
2023-03-24T09:09:59.996Z,99733.45
2023-03-24T09:12:44.155Z,99724.58
2023-03-24T09:15:24.889Z,99716.41
2023-03-24T09:18:00.996Z,99715.96
2023-03-24T09:20:39.176Z,99713.55
2023-03-24T09:23:18.056Z,99709.50
2023-03-24T09:25:56.284Z,99703.30
2023-03-24T09:28:37.253Z,99702.13
2023-03-24T09:31:16.652Z,99706.14
2023-03-24T09:33:51.280Z,99698.19
2023-03-24T09:36:30.694Z,99696.04
2023-03-24T09:39:08.899Z,99692.29
2023-03-24T09:41:48.645Z,99687.58
2023-03-24T09:44:36.026Z,99683.52
2023-03-24T09:47:25.074Z,99680.42
2023-03-24T09:50:04.680Z,99679.58
2023-03-24T09:52:50.341Z,99675.77
2023-03-24T09:55:30.138Z,99673.02
2023-03-24T09:58:10.129Z,99669.56
2023-03-24T10:00:50.971Z,99669.17
2023-03-24T10:03:39.508Z,99666.01
2023-03-24T10:06:22.445Z,99664.52
2023-03-24T10:09:12.124Z,99658.92
2023-03-24T10:11:59.011Z,99661.76
2023-03-24T10:14:51.764Z,99663.32
2023-03-24T10:17:40.215Z,99660.71
2023-03-24T10:20:38.203Z,99655.23
2023-03-24T10:23:27.095Z,99648.73
2023-03-24T10:26:11.394Z,99647.50
2023-03-24T10:28:52.767Z,99643.22
2023-03-24T10:31:37.021Z,99636.71
2023-03-24T10:34:17.782Z,99635.40
2023-03-24T10:36:54.857Z,99632.50
2023-03-24T10:39:44.345Z,99631.73
2023-03-24T10:42:29.271Z,99626.13
2023-03-24T10:45:13.846Z,99617.29
2023-03-24T10:47:51.154Z,99616.09
2023-03-24T10:50:30.201Z,99608.48
2023-03-24T10:53:10.924Z,99608.08
2023-03-24T10:55:56.216Z,99604.78
2023-03-24T10:58:42.200Z,99599.30
2023-03-24T11:01:28.030Z,99598.35
2023-03-24T11:04:08.953Z,99592.28
2023-03-24T11:07:02.692Z,99592.88
2023-03-24T11:09:55.075Z,99582.93
2023-03-24T11:12:36.271Z,99580.96
2023-03-24T11:15:55.394Z,99578.63
2023-03-24T11:18:39.898Z,99580.67
2023-03-24T11:21:19.287Z,99581.52
2023-03-24T11:23:55.071Z,99573.48
2023-03-24T11:26:35.718Z,99569.02
2023-03-24T11:29:18.894Z,99568.63
2023-03-24T11:31:59.733Z,99574.45
2023-03-24T11:34:43.321Z,99566.71
2023-03-24T11:37:22.389Z,99571.59
2023-03-24T11:40:23.222Z,99568.02
2023-03-24T11:43:06.080Z,99566.20
2023-03-24T11:45:46.773Z,99567.14
2023-03-24T11:48:32.318Z,99566.83
2023-03-24T11:51:13.337Z,99566.47
2023-03-24T11:53:55.001Z,99564.71
2023-03-24T11:56:43.176Z,99556.36
2023-03-24T11:59:32.291Z,99548.23
2023-03-24T12:02:20.306Z,99553.80
2023-03-24T12:05:33.459Z,99552.59
2023-03-24T12:08:30.883Z,99546.30
2023-03-24T12:11:18.741Z,99546.42
2023-03-24T12:14:00.940Z,99550.16
2023-03-24T12:16:52.350Z,99545.86
2023-03-24T12:20:05.642Z,99546.84
2023-03-24T12:22:59.767Z,99546.29
2023-03-24T12:25:59.881Z,99541.40
2023-03-24T12:29:02.662Z,99538.20
2023-03-24T12:32:17.961Z,99542.36
2023-03-24T12:35:16.774Z,99544.21
2023-03-24T12:38:05.012Z,99541.88
2023-03-24T12:41:05.546Z,99548.55
2023-03-24T12:43:55.281Z,99548.39
2023-03-24T12:46:53.940Z,99546.81
2023-03-24T12:53:07.818Z,99558.49
2023-03-24T12:55:51.815Z,99560.71
2023-03-24T12:58:39.635Z,99556.48
2023-03-24T13:01:43.241Z,99555.85
2023-03-24T13:04:28.920Z,99559.09
2023-03-24T13:07:08.591Z,99557.09
2023-03-24T13:09:54.180Z,99560.86
2023-03-24T13:12:40.587Z,99564.46
2023-03-24T13:15:27.186Z,99562.56
2023-03-24T13:18:09.801Z,99566.21
2023-03-24T13:20:53.899Z,99566.10
2023-03-24T13:23:41.789Z,99564.86
2023-03-24T13:27:02.608Z,99557.52
2023-03-24T13:30:08.905Z,99551.73
2023-03-24T13:32:59.594Z,99543.58
2023-03-24T13:35:52.887Z,99544.77
2023-03-24T13:38:38.371Z,99538.91
2023-03-24T13:41:24.744Z,99536.70
2023-03-24T13:44:19.106Z,99529.30
2023-03-24T13:47:50.281Z,99530.08
2023-03-24T13:50:30.188Z,99527.52
2023-03-24T13:53:19.246Z,99523.45
2023-03-24T13:55:56.305Z,99517.40
2023-03-24T13:58:46.764Z,99519.38
2023-03-24T14:01:37.030Z,99517.27
2023-03-24T14:04:28.654Z,99509.00
2023-03-24T14:07:25.336Z,99513.05
2023-03-24T14:10:05.379Z,99514.35
2023-03-24T14:12:57.334Z,99511.78
2023-03-24T14:15:34.886Z,99508.79
2023-03-24T14:18:42.008Z,99503.82
2023-03-24T14:21:17.362Z,99501.95
2023-03-24T14:23:59.700Z,99496.73
2023-03-24T14:26:39.167Z,99498.87
2023-03-24T14:29:51.783Z,99494.96
2023-03-24T14:32:26.291Z,99492.98
2023-03-24T14:35:07.048Z,99493.73
2023-03-24T14:37:54.764Z,99492.84
2023-03-24T14:40:41.013Z,99493.73
2023-03-24T14:43:29.260Z,99495.11
2023-03-24T14:46:09.221Z,99486.55
2023-03-24T14:48:59.920Z,99487.25
2023-03-24T14:51:44.181Z,99485.45
2023-03-24T14:54:28.410Z,99483.98
2023-03-24T14:57:06.978Z,99479.48
2023-03-24T14:59:53.181Z,99468.07
2023-03-24T15:02:56.593Z,99470.95
2023-03-24T15:05:37.256Z,99469.84
2023-03-24T15:08:22.011Z,99474.45
2023-03-24T15:11:05.367Z,99473.89
2023-03-24T15:13:45.556Z,99471.73
2023-03-24T15:16:30.778Z,99473.55
2023-03-24T15:19:13.940Z,99473.93
2023-03-24T15:21:59.766Z,99474.09
2023-03-24T15:24:40.272Z,99476.52
2023-03-24T15:27:24.402Z,99480.20
2023-03-24T15:30:04.055Z,99481.55
2023-03-24T15:32:46.679Z,99476.15
2023-03-24T15:35:25.632Z,99482.34
2023-03-24T15:38:02.425Z,99480.48
2023-03-24T15:40:46.108Z,99479.42
2023-03-24T15:43:27.285Z,99482.58
2023-03-24T15:46:12.387Z,99487.51
2023-03-24T15:48:58.531Z,99488.11
2023-03-24T15:51:51.760Z,99487.79
2023-03-24T15:54:33.275Z,99484.85
2023-03-24T15:57:22.259Z,99477.84
2023-03-24T16:00:16.703Z,99473.23
2023-03-24T16:02:55.176Z,99467.73
2023-03-24T16:05:32.980Z,99470.23
2023-03-24T16:08:28.736Z,99481.38
2023-03-24T16:11:08.692Z,99483.63
2023-03-24T16:13:49.623Z,99486.06
2023-03-24T16:16:34.652Z,99487.79
2023-03-24T16:19:10.402Z,99484.56
2023-03-24T16:21:49.217Z,99479.86
2023-03-24T16:24:25.699Z,99478.46
2023-03-24T16:27:01.914Z,99478.14
2023-03-24T16:29:37.685Z,99481.13
2023-03-24T16:32:17.113Z,99481.27
2023-03-24T16:34:51.249Z,99480.00
2023-03-24T16:37:35.496Z,99483.87
2023-03-24T16:40:33.755Z,99474.95
2023-03-24T16:43:14.242Z,99473.39
2023-03-24T16:45:54.504Z,99481.26
2023-03-24T16:48:31.060Z,99482.37
2023-03-24T16:51:13.285Z,99477.71
2023-03-24T16:53:51.177Z,99477.07
2023-03-24T16:56:32.229Z,99475.73
2023-03-24T16:59:13.090Z,99476.73
2023-03-24T17:01:49.861Z,99479.10
2023-03-24T17:04:28.686Z,99486.12
2023-03-24T17:07:16.725Z,99495.95
2023-03-24T17:09:55.457Z,99499.34
2023-03-24T17:12:32.181Z,99498.23
2023-03-24T17:15:07.475Z,99503.13
2023-03-24T17:17:46.035Z,99509.83
2023-03-24T17:20:32.737Z,99507.15
2023-03-24T17:23:09.180Z,99514.71
2023-03-24T17:25:50.924Z,99515.30
2023-03-24T17:28:28.177Z,99510.08
2023-03-24T17:31:05.062Z,99514.11
2023-03-24T17:33:44.758Z,99518.84
2023-03-24T17:36:20.684Z,99520.27
2023-03-24T17:38:55.996Z,99525.07
2023-03-24T17:41:34.168Z,99538.10
2023-03-24T17:44:13.674Z,99544.38
2023-03-24T17:46:50.186Z,99548.29
2023-03-24T17:49:31.206Z,99544.76
2023-03-24T17:52:07.355Z,99544.27
2023-03-24T17:54:43.537Z,99547.84
2023-03-24T17:57:22.064Z,99551.98
2023-03-24T18:00:10.385Z,99554.67
2023-03-24T18:02:49.706Z,99566.77
2023-03-24T18:05:28.456Z,99576.23
2023-03-24T18:08:08.637Z,99579.73
2023-03-24T18:10:49.553Z,99573.89
2023-03-24T18:13:26.604Z,99573.23
2023-03-24T18:16:20.830Z,99575.23
2023-03-24T18:19:01.073Z,99579.02
2023-03-24T18:21:41.363Z,99586.90
2023-03-24T18:24:18.369Z,99592.48
2023-03-24T18:27:00.384Z,99602.02
2023-03-24T18:29:42.989Z,99604.71
2023-03-24T18:32:23.572Z,99598.91
2023-03-24T18:35:04.203Z,99602.30
2023-03-24T18:37:43.840Z,99610.11
2023-03-24T18:40:20.526Z,99609.50
2023-03-24T18:42:58.345Z,99618.67
2023-03-24T18:45:36.687Z,99618.90
2023-03-24T18:48:15.004Z,99611.91
2023-03-24T18:51:00.751Z,99601.41
2023-03-24T18:53:46.011Z,99608.44
2023-03-24T18:56:24.160Z,99619.24
2023-03-24T18:59:04.087Z,99620.34
2023-03-24T19:01:42.663Z,99618.22
2023-03-24T19:04:18.830Z,99623.72
2023-03-24T19:06:55.222Z,99622.48
2023-03-24T19:09:48.519Z,99622.38
2023-03-24T19:12:25.991Z,99618.09
2023-03-24T19:15:07.352Z,99616.27
2023-03-24T19:17:48.477Z,99609.71
2023-03-24T19:20:24.612Z,99605.85
2023-03-24T19:23:08.716Z,99601.34
2023-03-24T19:25:47.101Z,99601.70
2023-03-24T19:28:24.094Z,99613.90
2023-03-24T19:31:09.770Z,99625.42
2023-03-24T19:33:44.847Z,99631.73
2023-03-24T19:36:23.329Z,99631.61
2023-03-24T19:39:03.918Z,99632.62
2023-03-24T19:41:43.402Z,99636.00
2023-03-24T19:44:23.780Z,99639.19
2023-03-24T19:47:04.635Z,99644.11
2023-03-24T19:49:43.617Z,99652.52
2023-03-24T19:52:29.601Z,99660.34
2023-03-24T19:55:10.337Z,99662.48
2023-03-24T19:57:46.955Z,99659.73
2023-03-24T20:00:25.246Z,99658.41
2023-03-24T20:03:09.091Z,99655.88
2023-03-24T20:05:43.830Z,99655.02
2023-03-24T20:08:28.848Z,99653.30
2023-03-24T20:11:07.235Z,99653.84
2023-03-24T20:13:47.364Z,99659.33
2023-03-24T20:16:23.348Z,99665.38
2023-03-24T20:19:02.318Z,99659.77
2023-03-24T20:21:39.487Z,99655.07
2023-03-24T20:24:19.774Z,99655.48
2023-03-24T20:26:55.095Z,99658.27
2023-03-24T20:29:33.210Z,99655.74
2023-03-24T20:32:12.337Z,99652.70
2023-03-24T20:34:48.285Z,99659.34
2023-03-24T20:37:26.275Z,99660.25
2023-03-24T20:40:02.918Z,99656.68
2023-03-24T20:42:38.448Z,99664.41
2023-03-24T20:45:17.705Z,99664.46
2023-03-24T20:47:53.468Z,99665.92
2023-03-24T20:50:31.319Z,99674.64
2023-03-24T20:53:06.566Z,99675.94
2023-03-24T20:55:41.524Z,99675.11
2023-03-24T20:58:19.413Z,99670.86
2023-03-24T21:00:56.077Z,99669.96
2023-03-24T21:03:32.724Z,99669.84
2023-03-24T21:06:12.615Z,99673.48
2023-03-24T21:08:48.667Z,99683.65
2023-03-24T21:11:25.522Z,99692.73
2023-03-24T21:14:06.452Z,99699.63
2023-03-24T21:16:44.690Z,99700.83
2023-03-24T21:19:21.480Z,99699.45
2023-03-24T21:21:56.554Z,99696.98
2023-03-24T21:24:37.675Z,99704.10
2023-03-24T21:27:14.401Z,99697.85
2023-03-24T21:29:50.240Z,99698.45
2023-03-24T21:32:31.629Z,99697.55
2023-03-24T21:35:15.118Z,99702.70
2023-03-24T21:37:54.598Z,99702.64
2023-03-24T21:40:30.873Z,99704.64
2023-03-24T21:43:07.384Z,99710.05
2023-03-24T21:45:47.268Z,99708.98
2023-03-24T21:48:23.793Z,99716.23
2023-03-24T21:51:01.024Z,99716.48
2023-03-24T21:53:41.368Z,99718.04
2023-03-24T21:56:20.337Z,99722.20
2023-03-24T21:58:57.635Z,99728.79
2023-03-24T22:01:37.252Z,99736.77
2023-03-24T22:04:13.390Z,99737.09
2023-03-24T22:06:54.126Z,99734.80
2023-03-24T22:09:35.126Z,99740.13
2023-03-24T22:12:11.505Z,99742.85
2023-03-24T22:14:49.405Z,99737.85
2023-03-24T22:17:25.437Z,99744.86
2023-03-24T22:20:00.964Z,99747.29
2023-03-24T22:22:39.178Z,99740.64
2023-03-24T22:25:25.563Z,99735.17
2023-03-24T22:28:03.325Z,99732.25
2023-03-24T22:30:44.408Z,99734.41
2023-03-24T22:33:21.397Z,99739.15
2023-03-24T22:36:00.490Z,99739.46
2023-03-24T22:38:38.672Z,99740.69
2023-03-24T22:41:16.503Z,99743.79
2023-03-24T22:43:52.013Z,99750.10
2023-03-24T22:46:32.968Z,99760.39
2023-03-24T22:49:08.420Z,99760.30
2023-03-24T22:51:44.622Z,99759.08
2023-03-24T22:54:21.592Z,99764.23
2023-03-24T22:56:57.395Z,99766.71
2023-03-24T22:59:33.462Z,99767.46
2023-03-24T23:02:10.696Z,99772.73
2023-03-24T23:04:47.274Z,99772.71
2023-03-24T23:07:24.072Z,99772.67
2023-03-24T23:10:00.877Z,99766.79
2023-03-24T23:12:38.275Z,99762.23
2023-03-24T23:15:27.047Z,99769.19
2023-03-24T23:18:04.479Z,99779.52
2023-03-24T23:20:42.983Z,99786.11
2023-03-24T23:23:22.623Z,99778.67
2023-03-24T23:26:00.633Z,99771.19
2023-03-24T23:28:39.756Z,99767.11
2023-03-24T23:31:23.740Z,99757.81
2023-03-24T23:34:00.767Z,99762.32
2023-03-24T23:36:44.864Z,99763.70
2023-03-24T23:39:24.733Z,99761.19
2023-03-24T23:42:02.456Z,99756.27
2023-03-24T23:44:41.136Z,99752.93
2023-03-24T23:47:17.633Z,99749.15
2023-03-24T23:49:56.073Z,99754.84
2023-03-24T23:52:42.168Z,99764.69
2023-03-24T23:55:25.975Z,99768.52
2023-03-24T23:58:06.414Z,99763.59
